createdAt,value
2022-12-03T00:00:15.126Z,29.80
2022-12-03T00:03:03.298Z,30.67
2022-12-03T00:05:51.467Z,27.02
2022-12-03T00:08:39.528Z,29.27
2022-12-03T00:11:27.551Z,28.08
2022-12-03T00:14:15.516Z,30.45
2022-12-03T00:17:05.104Z,28.58
2022-12-03T00:19:52.919Z,32.88
2022-12-03T00:22:40.971Z,25.27
2022-12-03T00:25:29.094Z,27.85
2022-12-03T00:28:17.078Z,30.23
2022-12-03T00:31:05.542Z,24.77
2022-12-03T00:33:55.694Z,28.65
2022-12-03T00:36:43.781Z,30.27
2022-12-03T00:39:31.818Z,27.33
2022-12-03T00:42:19.848Z,26.85
2022-12-03T00:45:10.478Z,34.08
2022-12-03T00:47:58.356Z,27.58
2022-12-03T00:50:47.861Z,25.48
2022-12-03T00:53:36.055Z,31.20
2022-12-03T00:56:23.843Z,30.63
2022-12-03T00:59:12.003Z,33.85
2022-12-03T01:02:00.255Z,25.33
2022-12-03T01:04:48.114Z,29.42
2022-12-03T01:07:37.283Z,27.00
2022-12-03T01:10:25.532Z,25.88
2022-12-03T01:13:13.605Z,26.90
2022-12-03T01:16:01.673Z,29.38
2022-12-03T01:18:52.347Z,27.00
2022-12-03T01:21:40.142Z,24.00
2022-12-03T01:24:29.983Z,26.73
2022-12-03T01:27:17.905Z,26.73
2022-12-03T01:30:07.115Z,29.80
2022-12-03T01:32:53.981Z,29.42
2022-12-03T01:35:42.240Z,25.20
2022-12-03T01:38:30.369Z,26.58
2022-12-03T01:41:21.871Z,25.35
2022-12-03T01:44:17.426Z,24.95
2022-12-03T01:47:07.649Z,29.13
2022-12-03T01:50:00.891Z,28.02
2022-12-03T01:52:49.308Z,28.10
2022-12-03T01:55:37.980Z,25.70
2022-12-03T01:58:29.926Z,25.85
2022-12-03T02:01:19.785Z,27.65
2022-12-03T02:04:07.986Z,27.92
2022-12-03T02:06:55.803Z,26.85
2022-12-03T02:09:43.901Z,24.38
2022-12-03T02:12:35.731Z,24.50
2022-12-03T02:15:25.060Z,27.08
2022-12-03T02:18:13.324Z,26.20
2022-12-03T02:21:11.877Z,24.42
2022-12-03T02:24:08.409Z,33.55
2022-12-03T02:26:57.650Z,23.10
2022-12-03T02:29:48.050Z,24.42
2022-12-03T02:32:36.139Z,24.75
2022-12-03T02:35:26.012Z,26.88
2022-12-03T02:38:18.574Z,30.25
2022-12-03T02:41:09.570Z,26.38
2022-12-03T02:43:58.018Z,27.33
2022-12-03T02:46:45.979Z,28.85
2022-12-03T02:49:34.004Z,25.13
2022-12-03T02:52:22.224Z,26.48
2022-12-03T02:55:11.442Z,26.45
2022-12-03T02:57:59.628Z,23.45
2022-12-03T03:00:49.455Z,27.95
2022-12-03T03:03:38.944Z,26.73
2022-12-03T03:06:27.426Z,24.33
2022-12-03T03:09:15.222Z,24.45
2022-12-03T03:12:03.457Z,25.08
2022-12-03T03:14:51.711Z,25.45
2022-12-03T03:17:42.051Z,24.50
2022-12-03T03:20:30.313Z,26.02
2022-12-03T03:23:23.860Z,25.27
2022-12-03T03:26:13.728Z,31.75
2022-12-03T03:29:03.091Z,23.08
2022-12-03T03:31:51.445Z,27.35
2022-12-03T03:34:40.715Z,26.13
2022-12-03T03:37:32.070Z,25.63
2022-12-03T03:40:20.765Z,28.58
2022-12-03T03:43:10.896Z,26.02
2022-12-03T03:45:59.084Z,24.65
2022-12-03T03:48:48.510Z,26.13
2022-12-03T03:51:39.690Z,26.02
2022-12-03T03:54:28.233Z,26.00
2022-12-03T03:57:16.809Z,23.98
2022-12-03T04:00:05.851Z,28.65
2022-12-03T04:02:54.793Z,25.10
2022-12-03T04:05:42.822Z,27.48
2022-12-03T04:08:32.085Z,32.03
2022-12-03T04:11:37.260Z,29.88
2022-12-03T04:14:25.642Z,24.23
2022-12-03T04:17:13.587Z,29.13
2022-12-03T04:20:01.926Z,28.52
2022-12-03T04:22:48.666Z,23.65
2022-12-03T04:25:55.797Z,29.67
2022-12-03T04:28:52.344Z,27.45
2022-12-03T04:31:58.396Z,33.22
2022-12-03T04:35:03.910Z,24.63
2022-12-03T04:37:52.147Z,33.67
2022-12-03T04:40:59.490Z,30.90
2022-12-03T04:44:01.154Z,27.38
2022-12-03T04:46:48.977Z,26.85
2022-12-03T04:49:38.859Z,33.17
2022-12-03T04:52:26.732Z,28.10
2022-12-03T04:55:14.739Z,29.30
2022-12-03T04:58:04.255Z,32.13
2022-12-03T05:00:53.236Z,32.83
2022-12-03T05:03:41.156Z,32.38
2022-12-03T05:06:29.087Z,31.17
2022-12-03T05:09:16.858Z,26.13
2022-12-03T05:12:05.054Z,32.50
2022-12-03T05:14:54.563Z,25.52
2022-12-03T05:17:42.997Z,29.05
2022-12-03T05:20:46.937Z,25.17
2022-12-03T05:23:39.189Z,32.22
2022-12-03T05:26:27.459Z,35.78
2022-12-03T05:29:15.785Z,32.50
2022-12-03T05:32:05.657Z,31.23
2022-12-03T05:34:53.781Z,37.22
2022-12-03T05:37:45.101Z,31.67
2022-12-03T05:40:33.367Z,30.02
2022-12-03T05:43:20.174Z,35.88
2022-12-03T05:46:08.635Z,34.05
2022-12-03T05:48:58.024Z,33.75
2022-12-03T05:51:45.998Z,33.90
2022-12-03T05:54:34.341Z,35.15
2022-12-03T05:57:22.190Z,33.00
2022-12-03T06:00:14.576Z,32.67
2022-12-03T06:03:02.885Z,34.20
2022-12-03T06:05:52.313Z,35.55
2022-12-03T06:08:40.259Z,32.40
2022-12-03T06:11:29.858Z,32.38
2022-12-03T06:14:17.728Z,39.58
2022-12-03T06:17:05.941Z,33.95
2022-12-03T06:19:56.318Z,31.83
2022-12-03T06:22:45.617Z,32.58
2022-12-03T06:25:33.585Z,34.03
2022-12-03T06:28:21.695Z,33.25
2022-12-03T06:31:09.902Z,33.88
2022-12-03T06:33:57.709Z,32.30
2022-12-03T06:36:46.851Z,36.22
2022-12-03T06:39:36.399Z,33.20
2022-12-03T06:42:24.499Z,31.67
2022-12-03T06:45:13.198Z,30.38
2022-12-03T06:48:01.342Z,32.40
2022-12-03T06:50:49.024Z,30.10
2022-12-03T06:53:37.169Z,34.47
2022-12-03T06:56:32.835Z,32.58
2022-12-03T06:59:23.185Z,34.80
2022-12-03T07:02:12.477Z,36.50
2022-12-03T07:05:00.583Z,30.20
2022-12-03T07:07:52.008Z,36.20
2022-12-03T07:10:39.873Z,32.78
2022-12-03T07:13:29.321Z,34.90
2022-12-03T07:16:17.309Z,31.10
2022-12-03T07:19:06.721Z,34.67
2022-12-03T07:21:54.786Z,32.80
2022-12-03T07:24:42.810Z,32.08
2022-12-03T07:27:30.555Z,30.77
2022-12-03T07:30:20.577Z,30.17
2022-12-03T07:33:08.600Z,31.67
2022-12-03T07:35:56.532Z,35.85
2022-12-03T07:38:44.383Z,30.30
2022-12-03T07:41:32.473Z,29.75
2022-12-03T07:44:20.407Z,31.50
2022-12-03T07:47:09.884Z,29.23
2022-12-03T07:49:57.706Z,30.05
2022-12-03T07:52:45.918Z,29.85
2022-12-03T07:55:33.794Z,31.02
2022-12-03T07:58:24.154Z,32.63
2022-12-03T08:01:14.455Z,34.67
2022-12-03T08:04:03.859Z,32.95
2022-12-03T08:06:51.954Z,28.38
2022-12-03T08:09:41.322Z,32.10
2022-12-03T08:12:40.893Z,28.38
2022-12-03T08:15:35.404Z,27.92
2022-12-03T08:18:29.157Z,30.25
2022-12-03T08:21:21.274Z,32.08
2022-12-03T08:24:16.038Z,29.15
2022-12-03T08:27:06.584Z,33.78
2022-12-03T08:30:02.474Z,29.70
2022-12-03T08:32:51.779Z,33.38
2022-12-03T08:35:41.258Z,32.53
2022-12-03T08:38:31.671Z,30.15
2022-12-03T08:41:36.097Z,32.47
2022-12-03T08:44:29.023Z,36.38
2022-12-03T08:47:20.971Z,30.92
2022-12-03T08:50:30.568Z,30.58
2022-12-03T08:53:34.963Z,28.08
2022-12-03T08:56:25.049Z,32.35
2022-12-03T08:59:27.573Z,35.55
2022-12-03T09:02:26.392Z,23.27
2022-12-03T09:05:18.101Z,33.55
2022-12-03T09:08:06.054Z,28.63
2022-12-03T09:10:55.248Z,30.10
2022-12-03T09:13:43.138Z,30.30
2022-12-03T09:16:31.138Z,29.95
2022-12-03T09:19:19.036Z,28.92
2022-12-03T09:22:07.127Z,29.73
2022-12-03T09:24:55.088Z,31.33
2022-12-03T09:27:44.542Z,30.88
2022-12-03T09:30:32.485Z,27.65
2022-12-03T09:33:20.607Z,30.88
2022-12-03T09:36:08.923Z,27.05
2022-12-03T09:38:57.487Z,25.63
2022-12-03T09:41:45.705Z,32.88
2022-12-03T09:44:39.067Z,30.58
2022-12-03T09:47:28.522Z,30.55
2022-12-03T09:50:20.185Z,32.75
2022-12-03T09:53:08.365Z,30.45
2022-12-03T09:56:02.405Z,31.25
2022-12-03T09:58:50.848Z,30.92
2022-12-03T10:01:40.319Z,34.20
2022-12-03T10:04:29.269Z,31.10
2022-12-03T10:07:17.306Z,33.13
2022-12-03T10:10:08.371Z,32.50
2022-12-03T10:12:58.174Z,31.38
2022-12-03T10:15:48.733Z,32.03
2022-12-03T10:18:41.594Z,31.70
2022-12-03T10:24:23.552Z,33.15
2022-12-03T10:27:26.765Z,30.23
2022-12-03T10:30:19.528Z,29.33
2022-12-03T10:33:18.903Z,27.40
2022-12-03T10:36:21.688Z,26.10
2022-12-03T10:39:15.567Z,27.02
2022-12-03T10:42:16.604Z,28.50
2022-12-03T10:45:16.573Z,36.85
2022-12-03T10:48:07.430Z,29.40
2022-12-03T10:50:56.661Z,27.77
2022-12-03T10:53:46.350Z,26.17
2022-12-03T10:56:34.210Z,29.90
2022-12-03T10:59:24.622Z,29.73
2022-12-03T11:02:19.649Z,27.08
2022-12-03T11:05:08.917Z,26.33
2022-12-03T11:07:57.612Z,25.20
2022-12-03T11:10:47.798Z,27.42
2022-12-03T11:13:51.205Z,26.83
2022-12-03T11:17:08.780Z,23.65
2022-12-03T11:19:56.870Z,23.20
2022-12-03T11:22:46.888Z,24.92
2022-12-03T11:25:51.485Z,24.55
2022-12-03T11:28:57.849Z,23.83
2022-12-03T11:31:47.756Z,28.77
2022-12-03T11:34:44.989Z,25.23
2022-12-03T11:37:32.772Z,22.73
2022-12-03T11:40:36.135Z,24.20
2022-12-03T11:44:03.193Z,22.77
2022-12-03T11:46:51.296Z,23.50
2022-12-03T11:49:49.055Z,25.88
2022-12-03T11:52:48.838Z,20.70
2022-12-03T11:55:39.461Z,23.23
2022-12-03T11:58:29.385Z,23.02
2022-12-03T12:01:38.255Z,23.73
2022-12-03T12:04:33.081Z,20.88
2022-12-03T12:07:35.464Z,25.13
2022-12-03T12:10:47.076Z,23.45
2022-12-03T12:13:54.507Z,24.45
2022-12-03T12:16:51.368Z,20.67
2022-12-03T12:19:43.221Z,22.40
2022-12-03T12:22:32.638Z,18.10
2022-12-03T12:25:38.445Z,22.42
2022-12-03T12:28:26.631Z,20.60
2022-12-03T12:31:14.339Z,21.25
2022-12-03T12:34:06.105Z,21.05
2022-12-03T12:36:56.219Z,21.67
2022-12-03T12:39:44.482Z,18.25
2022-12-03T12:42:35.190Z,19.70
2022-12-03T12:45:24.895Z,18.02
2022-12-03T12:48:22.951Z,15.45
2022-12-03T12:51:16.841Z,18.13
2022-12-03T12:54:07.520Z,18.95
2022-12-03T12:56:55.280Z,18.67
2022-12-03T12:59:43.334Z,19.27
2022-12-03T13:02:46.396Z,19.30
2022-12-03T13:08:31.652Z,17.95
2022-12-03T13:14:21.766Z,15.75
2022-12-03T13:17:16.423Z,18.15
2022-12-03T13:20:15.919Z,15.88
2022-12-03T13:23:04.486Z,17.75
2022-12-03T13:26:12.898Z,16.42
2022-12-03T13:29:10.309Z,15.23
2022-12-03T13:32:01.162Z,17.48
2022-12-03T13:34:50.618Z,15.98
2022-12-03T13:37:39.200Z,17.80
2022-12-03T13:40:30.582Z,16.42
2022-12-03T13:43:21.452Z,16.55
2022-12-03T13:46:11.414Z,12.95
2022-12-03T13:49:01.858Z,14.68
2022-12-03T13:51:51.155Z,13.02
2022-12-03T13:54:40.129Z,15.90
2022-12-03T13:57:27.956Z,13.45
2022-12-03T14:00:18.145Z,14.10
2022-12-03T14:03:06.558Z,15.48
2022-12-03T14:05:54.412Z,14.00
2022-12-03T14:08:42.520Z,12.68
2022-12-03T14:11:50.162Z,14.90
2022-12-03T14:14:37.921Z,12.73
2022-12-03T14:17:30.093Z,12.60
2022-12-03T14:20:20.015Z,16.52
2022-12-03T14:23:08.106Z,15.05
2022-12-03T14:25:56.346Z,13.23
2022-12-03T14:29:18.229Z,13.57
2022-12-03T14:32:06.629Z,12.63
2022-12-03T14:34:56.653Z,15.15
2022-12-03T14:37:44.337Z,10.90
2022-12-03T14:40:34.771Z,12.27
2022-12-03T14:43:24.813Z,12.98
2022-12-03T14:46:13.166Z,11.90
2022-12-03T14:49:01.256Z,12.13
2022-12-03T14:51:50.877Z,11.18
2022-12-03T14:54:40.582Z,11.88
2022-12-03T14:57:28.746Z,14.07
2022-12-03T15:00:17.616Z,12.95
2022-12-03T15:03:05.818Z,12.35
2022-12-03T15:05:53.923Z,12.30
2022-12-03T15:08:46.446Z,14.43
2022-12-03T15:11:34.452Z,13.55
2022-12-03T15:14:22.346Z,13.00
2022-12-03T15:17:10.601Z,12.45
2022-12-03T15:19:58.389Z,12.73
2022-12-03T15:22:46.141Z,12.93
2022-12-03T15:25:36.408Z,13.27
2022-12-03T15:28:24.497Z,12.48
2022-12-03T15:31:27.299Z,16.67
2022-12-03T15:34:21.843Z,12.63
2022-12-03T15:37:10.866Z,13.00
2022-12-03T15:39:59.267Z,14.32
2022-12-03T15:42:49.137Z,30.40
2022-12-03T15:45:37.903Z,35.40
2022-12-03T15:48:25.803Z,16.15
2022-12-03T15:51:13.751Z,33.53
2022-12-03T15:54:01.816Z,16.73
2022-12-03T15:56:55.526Z,46.50
2022-12-03T15:59:46.683Z,18.52
2022-12-03T16:02:34.859Z,29.60
2022-12-03T16:05:22.920Z,21.85
2022-12-03T16:08:10.822Z,36.03
2022-12-03T16:10:58.592Z,17.70
2022-12-03T16:13:46.979Z,15.60
2022-12-03T16:16:36.485Z,19.40
2022-12-03T16:19:24.394Z,15.77
2022-12-03T16:22:12.720Z,16.48
2022-12-03T16:25:00.590Z,14.05
2022-12-03T16:27:48.661Z,13.27
2022-12-03T16:30:37.991Z,14.55
2022-12-03T16:33:29.715Z,13.73
2022-12-03T16:36:18.097Z,13.63
2022-12-03T16:39:06.595Z,14.50
2022-12-03T16:41:54.382Z,15.48
2022-12-03T16:45:11.911Z,16.38
2022-12-03T16:47:59.842Z,16.13
2022-12-03T16:50:49.373Z,14.90
2022-12-03T16:53:37.564Z,16.95
2022-12-03T16:56:25.769Z,13.18
2022-12-03T16:59:13.942Z,14.20
2022-12-03T17:02:02.167Z,14.00
2022-12-03T17:04:52.187Z,13.73
2022-12-03T17:07:41.410Z,13.57
2022-12-03T17:10:29.817Z,13.60
2022-12-03T17:13:18.113Z,12.40
2022-12-03T17:16:06.879Z,15.00
2022-12-03T17:18:54.529Z,14.50
2022-12-03T17:21:42.767Z,12.93
2022-12-03T17:25:25.804Z,13.25
2022-12-03T17:28:15.286Z,13.50
2022-12-03T17:31:03.179Z,13.85
2022-12-03T17:33:52.604Z,14.60
2022-12-03T17:36:40.315Z,14.55
2022-12-03T17:39:28.290Z,13.38
2022-12-03T17:42:16.555Z,14.32
2022-12-03T17:45:07.595Z,17.15
2022-12-03T17:47:55.428Z,12.43
2022-12-03T17:50:43.499Z,18.50
2022-12-03T17:53:31.608Z,18.63
2022-12-03T17:56:22.522Z,15.35
2022-12-03T17:59:11.126Z,14.48
2022-12-03T18:02:00.310Z,16.58
2022-12-03T18:04:48.343Z,12.35
2022-12-03T18:07:36.439Z,42.22
2022-12-03T18:10:24.326Z,147.85
2022-12-03T18:13:12.373Z,100.03
2022-12-03T18:16:00.410Z,43.47
2022-12-03T18:18:55.044Z,36.97
2022-12-03T18:21:44.621Z,28.27
2022-12-03T18:24:32.670Z,34.88
2022-12-03T18:27:20.986Z,30.02
2022-12-03T18:30:09.939Z,23.83
2022-12-03T18:32:58.058Z,24.55
2022-12-03T18:35:47.472Z,24.35
2022-12-03T18:38:35.884Z,28.40
2022-12-03T18:41:25.309Z,30.30
2022-12-03T18:44:13.568Z,28.13
2022-12-03T18:47:02.610Z,24.15
2022-12-03T18:49:50.641Z,23.88
2022-12-03T18:52:39.969Z,25.95
2022-12-03T18:55:32.061Z,24.88
2022-12-03T18:58:22.970Z,30.40
2022-12-03T19:01:17.739Z,25.17
2022-12-03T19:04:06.097Z,26.92
2022-12-03T19:06:54.607Z,20.98
2022-12-03T19:09:44.239Z,25.92
2022-12-03T19:12:32.235Z,23.60
2022-12-03T19:15:20.612Z,20.75
2022-12-03T19:18:11.734Z,22.98
2022-12-03T19:21:02.127Z,20.38
2022-12-03T19:24:22.169Z,22.27
2022-12-03T19:27:02.094Z,19.35
2022-12-03T19:29:53.512Z,19.48
2022-12-03T19:32:41.663Z,20.52
2022-12-03T19:35:30.761Z,22.13
2022-12-03T19:38:18.935Z,19.83
2022-12-03T19:41:08.458Z,20.10
2022-12-03T19:43:58.936Z,22.33
2022-12-03T19:46:47.009Z,18.42
2022-12-03T19:49:35.044Z,20.73
2022-12-03T19:52:23.047Z,19.05
2022-12-03T19:55:11.138Z,15.48
2022-12-03T19:57:59.158Z,20.02
2022-12-03T20:00:48.634Z,18.38
2022-12-03T20:03:39.312Z,15.45
2022-12-03T20:06:29.581Z,19.83
2022-12-03T20:09:20.817Z,20.88
2022-12-03T20:12:09.188Z,24.30
2022-12-03T20:14:57.270Z,16.48
2022-12-03T20:17:46.530Z,19.00
2022-12-03T20:20:34.233Z,20.17
2022-12-03T20:23:22.203Z,19.17
2022-12-03T20:26:11.303Z,21.13
2022-12-03T20:29:00.568Z,18.95
2022-12-03T20:31:48.844Z,20.58
2022-12-03T20:34:38.390Z,23.15
2022-12-03T20:37:26.589Z,19.60
2022-12-03T20:40:15.115Z,17.02
2022-12-03T20:43:03.020Z,16.58
2022-12-03T20:45:51.433Z,17.15
2022-12-03T20:48:40.226Z,16.15
2022-12-03T20:51:32.187Z,19.00
2022-12-03T20:54:20.344Z,17.70
2022-12-03T20:57:08.502Z,19.92
2022-12-03T20:59:58.770Z,17.70
2022-12-03T21:02:46.824Z,20.92
2022-12-03T21:05:34.734Z,15.50
2022-12-03T21:08:40.101Z,18.55
2022-12-03T21:11:31.654Z,20.30
2022-12-03T21:14:19.565Z,18.15
2022-12-03T21:17:09.394Z,18.63
2022-12-03T21:19:57.894Z,20.42
2022-12-03T21:22:50.237Z,23.90
2022-12-03T21:25:42.816Z,21.73
2022-12-03T21:28:30.965Z,12.13
2022-12-03T21:31:20.610Z,17.90
2022-12-03T21:34:08.889Z,19.02
2022-12-03T21:36:56.834Z,17.83
2022-12-03T21:39:44.939Z,18.52
2022-12-03T21:42:37.240Z,19.52
2022-12-03T21:45:26.368Z,17.40
2022-12-03T21:48:14.586Z,18.48
2022-12-03T21:51:04.056Z,14.75
2022-12-03T21:53:53.182Z,17.00
2022-12-03T21:56:41.374Z,18.38
2022-12-03T21:59:30.848Z,16.10
2022-12-03T22:02:19.093Z,14.77
2022-12-03T22:05:09.331Z,15.65
2022-12-03T22:07:57.459Z,15.80
2022-12-03T22:10:45.439Z,18.23
2022-12-03T22:13:33.368Z,15.98
2022-12-03T22:16:23.136Z,15.95
2022-12-03T22:19:11.270Z,18.38
2022-12-03T22:21:58.997Z,16.08
2022-12-03T22:24:47.582Z,15.65
2022-12-03T22:27:35.574Z,13.63
2022-12-03T22:30:23.775Z,14.95
2022-12-03T22:33:13.219Z,16.08
2022-12-03T22:36:02.763Z,16.27
2022-12-03T22:38:51.188Z,17.92
2022-12-03T22:41:39.102Z,15.45
2022-12-03T22:44:27.254Z,16.48
2022-12-03T22:47:15.224Z,16.55
2022-12-03T22:50:04.749Z,15.50
2022-12-03T22:52:52.440Z,17.83
2022-12-03T22:55:40.751Z,15.65
2022-12-03T22:58:31.267Z,16.60
2022-12-03T23:01:24.183Z,14.82
2022-12-03T23:04:13.093Z,15.55
2022-12-03T23:07:02.724Z,13.15
2022-12-03T23:09:50.912Z,14.65
2022-12-03T23:12:38.755Z,16.35
2022-12-03T23:15:26.781Z,12.93
2022-12-03T23:18:16.517Z,14.70
2022-12-03T23:21:04.334Z,15.32
2022-12-03T23:23:53.690Z,14.40
2022-12-03T23:26:41.681Z,13.70
2022-12-03T23:29:29.966Z,15.20
2022-12-03T23:32:18.033Z,15.20
2022-12-03T23:35:07.698Z,12.35
2022-12-03T23:37:55.560Z,12.18
2022-12-03T23:40:48.281Z,13.95
2022-12-03T23:43:36.428Z,14.88
2022-12-03T23:46:26.508Z,14.13
2022-12-03T23:49:14.639Z,16.20
2022-12-03T23:52:02.898Z,13.88
2022-12-03T23:54:51.189Z,13.45
2022-12-03T23:57:40.398Z,12.25
